»·PEaware :: N786RF KLAX-KSNA

N786RF :: KLAX-KSNA

FLIGHT INFORMATION

Flight Status: Arrived
Operator: Privately registered:
United States
More flights under this callsign
Pilot: Rao F. (13171)
Aircraft: CESSNA 172 SKYHAWK
(C172)
More flights by this aircraft type
Origin: KLAX Los Angeles Intl
United States
Destination: KSNA John Wayne-Orange Co
United States
More flights between these airports :: More routes between these airports
Route: SLI8 SLI
File this flight plan on PilotEdge
Remarks:
Altitude:
(Current/Filed)
4,000ft
Speed:
(Current/Filed)
90kts
Departed: 31-Jul-20 10:41 PM
Arrived: 31-Jul-20 11:33 PM
Distance/Time
Traveled:
27nm/0:52
Distance/Time
To Go:
Arrived

Flight Plot

Page will automatically refresh every two minutes.


Map Options




Map Legend


Flown Route
Filed Route
Departure Airport
Arrival Airport
Navaid (VOR, NDB)
Fix

Horizontal Profiles

Position Reports

Time Latitude Longitude Heading Altitude Ground
Speed
31-Jul-20 22:26 33.933207 -118.397463 263 118ft 0kts
31-Jul-20 22:27 33.933207 -118.397463 263 118ft 0kts
31-Jul-20 22:28 33.933207 -118.397463 263 118ft 0kts
31-Jul-20 22:29 33.933207 -118.397463 263 118ft 0kts
31-Jul-20 22:30 33.933207 -118.397463 263 118ft 0kts
31-Jul-20 22:31 33.933207 -118.397463 263 118ft 0kts
31-Jul-20 22:32 33.933207 -118.397463 263 118ft 0kts
31-Jul-20 22:33 33.933207 -118.397463 263 118ft 0kts
31-Jul-20 22:34 33.934344 -118.398153 6 113ft 7kts
31-Jul-20 22:35 33.935250 -118.391368 83 104ft 28kts
31-Jul-20 22:36 33.935968 -118.384271 82 101ft 14kts
31-Jul-20 22:37 33.936478 -118.382762 359 99ft 0kts
31-Jul-20 22:38 33.936478 -118.382762 359 99ft 0kts
31-Jul-20 22:39 33.937228 -118.384107 262 101ft 11kts
31-Jul-20 22:40 33.934373 -118.403466 257 800ft 71kts
31-Jul-20 22:41 33.929295 -118.428741 254 1908ft 73kts
31-Jul-20 22:42 33.923968 -118.452650 254 2907ft 72kts
31-Jul-20 22:43 33.915344 -118.475000 192 3834ft 76kts
31-Jul-20 22:44 33.900894 -118.493069 257 4140ft 79kts
31-Jul-20 22:45 33.885757 -118.504247 136 4031ft 89kts
31-Jul-20 22:46 33.866700 -118.483220 136 4131ft 97kts
31-Jul-20 22:47 33.845289 -118.460671 137 4238ft 98kts
31-Jul-20 22:48 33.832379 -118.431869 97 4151ft 105kts
31-Jul-20 22:49 33.830176 -118.396492 90 3957ft 105kts
31-Jul-20 22:50 33.817984 -118.366139 134 3908ft 97kts
31-Jul-20 22:51 33.799768 -118.343549 134 4050ft 91kts
31-Jul-20 22:52 33.784469 -118.326305 136 4040ft 92kts
31-Jul-20 22:53 33.766096 -118.304660 132 4042ft 92kts
31-Jul-20 22:54 33.748150 -118.282587 139 4041ft 92kts
31-Jul-20 22:55 33.730027 -118.260649 134 4043ft 92kts
31-Jul-20 22:56 33.711389 -118.239438 133 4043ft 92kts
31-Jul-20 22:58 33.693137 -118.196352 51 4123ft 95kts
31-Jul-20 22:59 33.711703 -118.171179 48 4158ft 106kts
31-Jul-20 23:13 33.897865 -117.767113 60 4130ft 98kts
31-Jul-20 23:14 33.910279 -117.737629 67 4148ft 99kts
31-Jul-20 23:15 33.922270 -117.707832 51 4160ft 99kts
31-Jul-20 23:16 33.948122 -117.697778 13 4134ft 99kts
31-Jul-20 23:17 33.967272 -117.709410 271 4189ft 96kts
31-Jul-20 23:18 33.947376 -117.716308 150 4268ft 98kts
31-Jul-20 23:19 33.920781 -117.709469 190 4159ft 101kts
31-Jul-20 23:20 33.897253 -117.726429 220 4064ft 98kts
31-Jul-20 23:21 33.873093 -117.742765 210 4044ft 100kts
31-Jul-20 23:23 33.849444 -117.760368 205 4109ft 100kts
31-Jul-20 23:24 33.824651 -117.775822 208 4178ft 100kts
31-Jul-20 23:25 33.801137 -117.789692 205 3731ft 75kts
31-Jul-20 23:26 33.782606 -117.800649 206 3270ft 69kts
31-Jul-20 23:27 33.764612 -117.811358 203 2717ft 75kts
31-Jul-20 23:28 33.746815 -117.822983 204 2226ft 71kts
31-Jul-20 23:29 33.729335 -117.834170 208 1670ft 71kts
31-Jul-20 23:30 33.712129 -117.845543 208 1002ft 70kts
31-Jul-20 23:31 33.694963 -117.856550 207 351ft 70kts
31-Jul-20 23:32 33.678372 -117.867091 207 60ft 50kts
31-Jul-20 23:33 33.674606 -117.868554 166 60ft 22kts
31-Jul-20 23:34 33.673278 -117.866826 171 60ft 9kts
31-Jul-20 23:35 33.670247 -117.869601 219 60ft 12kts
31-Jul-20 23:36 33.668652 -117.871250 220 60ft 10kts
31-Jul-20 23:37 33.666571 -117.873404 209 60ft 9kts
31-Jul-20 23:38 33.663834 -117.875210 246 60ft 14kts
31-Jul-20 23:39 33.666848 -117.873121 35 60ft 16kts
31-Jul-20 23:40 33.670427 -117.869419 40 60ft 17kts
31-Jul-20 23:41 33.673860 -117.867230 7 60ft 5kts
31-Jul-20 23:41 33.675573 -117.866162 27 60ft 14kts
31-Jul-20 23:43 33.680061 -117.864026 266 60ft 10kts
31-Jul-20 23:44 33.672114 -117.877099 331 582ft 87kts
31-Jul-20 23:44 33.694168 -117.878779 331 1316ft 99kts
31-Jul-20 23:46 33.720860 -117.897903 332 1653ft 95kts
31-Jul-20 23:46 33.739957 -117.908771 336 1731ft 96kts
31-Jul-20 23:47 33.766113 -117.915697 359 1808ft 98kts

Navigation Log

Ident Type
Flight plan parsing failed, navigation log unavailable